Time;durP1;ratioP1;P1;durP2;ratioP2;P2;SDS_P1;SDS_P2;PMS_P1;PMS_P2;Temp;Humidity;BMP_temperature;BMP_pressure;BME280_temperature;BME280_humidity;BME280_pressure;Samples;Min_cycle;Max_cycle;Signal;HPM_P1;HPM_P2
2022/03/20 00:01:06;;;;;;;8.70;4.75;;;;;;;6.26;25.52;102268.22;4385229;32;32948;-84
2022/03/20 00:03:35;;;;;;;6.70;4.00;;;;;;;5.73;26.18;102281.41;4385507;32;34449;-84
2022/03/20 00:06:03;;;;;;;7.75;4.22;;;;;;;6.10;25.75;102266.28;4385773;32;33005;-84
2022/03/20 00:08:31;;;;;;;11.98;4.53;;;;;;;6.08;25.74;102265.38;4385230;32;34147;-84
2022/03/20 00:11:01;;;;;;;10.82;4.95;;;;;;;5.89;25.82;102272.94;4348599;32;34257;-83
2022/03/20 00:13:30;;;;;;;14.25;5.57;;;;;;;5.83;26.60;102271.94;4385216;32;33342;-84
2022/03/20 00:15:59;;;;;;;8.32;4.05;;;;;;;6.00;25.90;102265.25;4385424;32;34119;-84
2022/03/20 00:18:27;;;;;;;9.52;4.37;;;;;;;6.10;25.74;102267.16;4360683;32;34505;-84
2022/03/20 00:20:58;;;;;;;8.85;4.40;;;;;;;6.15;25.54;102257.59;4378326;32;33470;-83
2022/03/20 00:23:26;;;;;;;12.55;4.00;;;;;;;5.79;26.16;102276.28;4385799;32;33089;-84
2022/03/20 00:25:55;;;;;;;10.93;4.57;;;;;;;5.91;26.17;102270.34;4372443;32;34176;-83
2022/03/20 00:28:24;;;;;;;8.93;4.75;;;;;;;6.06;25.92;102265.34;4385191;32;34499;-84
2022/03/20 00:30:54;;;;;;;8.57;4.57;;;;;;;6.35;25.69;102263.09;4372135;32;32647;-84
2022/03/20 00:33:22;;;;;;;9.93;4.20;;;;;;;6.26;25.77;102260.34;4385356;32;33464;-84
2022/03/20 00:35:50;;;;;;;9.93;5.10;;;;;;;6.32;25.71;102256.97;4372531;32;34143;-84
2022/03/20 00:38:18;;;;;;;8.90;4.85;;;;;;;6.36;25.69;102261.34;4373050;32;33417;-84
2022/03/20 00:40:46;;;;;;;6.68;4.50;;;;;;;5.40;26.70;102261.66;4360589;32;34479;-83
2022/03/20 00:43:14;;;;;;;9.93;4.37;;;;;;;5.73;26.63;102264.81;4384367;32;33844;-83
2022/03/20 00:45:41;;;;;;;9.05;4.53;;;;;;;5.51;27.29;102264.47;4372782;32;33580;-83
2022/03/20 00:48:10;;;;;;;7.25;3.70;;;;;;;5.56;27.03;102264.56;4372565;32;34263;-83
2022/03/20 00:50:37;;;;;;;9.43;4.80;;;;;;;5.79;26.65;102264.88;4372668;32;33420;-83
2022/03/20 00:53:05;;;;;;;8.07;3.92;;;;;;;6.06;26.33;102261.84;4360446;32;34167;-83
2022/03/20 00:55:33;;;;;;;11.52;5.18;;;;;;;5.49;27.07;102267.91;4385167;32;34004;-82
2022/03/20 00:58:00;;;;;;;7.12;4.05;;;;;;;5.47;27.48;102267.03;4348223;32;33939;-83
2022/03/20 01:00:28;;;;;;;8.35;4.25;;;;;;;5.38;27.70;102266.00;4360318;32;33064;-83
2022/03/20 01:02:56;;;;;;;9.60;4.87;;;;;;;5.30;28.13;102271.97;4384885;32;33034;-82
2022/03/20 01:05:23;;;;;;;8.60;4.62;;;;;;;5.32;28.21;102268.53;4385197;32;32252;-82
2022/03/20 01:07:51;;;;;;;8.02;4.43;;;;;;;5.23;28.52;102265.75;4360528;32;33790;-83
2022/03/20 01:10:19;;;;;;;9.35;5.12;;;;;;;5.57;27.82;102259.34;4384850;32;33582;-82
2022/03/20 01:12:47;;;;;;;9.70;4.53;;;;;;;5.25;28.31;102257.91;4385050;32;33738;-83
2022/03/20 01:15:15;;;;;;;9.82;5.07;;;;;;;5.26;28.37;102262.28;4372423;32;34010;-83
2022/03/20 01:17:48;;;;;;;10.57;4.75;;;;;;;5.21;28.52;102262.19;4383890;32;34759;-83
2022/03/20 01:20:16;;;;;;;8.82;4.97;;;;;;;5.23;28.65;102263.13;4372333;32;33618;-82
2022/03/20 01:22:45;;;;;;;7.10;4.07;;;;;;;5.24;28.54;102264.00;4359914;32;33007;-82
2022/03/20 01:25:18;;;;;;;13.75;5.68;;;;;;;5.22;28.57;102263.06;4371709;32;32630;-83
2022/03/20 01:27:46;;;;;;;10.55;5.07;;;;;;;5.31;28.51;102269.34;4385084;32;33833;-82
2022/03/20 01:30:13;;;;;;;9.40;4.62;;;;;;;5.21;28.66;102270.06;4372209;32;33360;-82
2022/03/20 01:32:41;;;;;;;9.98;4.87;;;;;;;5.34;28.48;102272.03;4384692;32;33582;-83
2022/03/20 01:35:11;;;;;;;12.00;5.22;;;;;;;5.15;28.60;102275.19;4361365;32;32374;-83
2022/03/20 01:37:41;;;;;;;11.73;5.43;;;;;;;5.11;28.91;102268.13;4383596;32;34094;-83
2022/03/20 01:40:09;;;;;;;9.32;5.07;;;;;;;4.92;29.24;102276.50;4371969;32;33589;-83
2022/03/20 01:42:40;;;;;;;13.52;5.40;;;;;;;4.88;29.32;102284.28;4371770;32;33800;-83
2022/03/20 01:45:16;;;;;;;8.65;5.12;;;;;;;4.97;29.43;102285.31;4384232;32;34198;-83
2022/03/20 01:47:47;;;;;;;7.12;4.07;;;;;;;4.90;29.25;102289.56;4384587;32;33107;-83
2022/03/20 01:50:21;;;;;;;9.38;5.15;;;;;;;4.30;30.20;102290.94;4371534;32;35006;-83
2022/03/20 01:52:51;;;;;;;8.88;4.40;;;;;;;4.25;30.47;102302.16;4371711;32;33558;-83
2022/03/20 01:55:21;;;;;;;9.55;4.95;;;;;;;4.29;30.47;102299.66;4384401;32;33315;-83
2022/03/20 01:57:49;;;;;;;8.35;4.57;;;;;;;4.49;30.17;102296.56;4347588;32;33657;-82
2022/03/20 02:00:24;;;;;;;10.73;5.68;;;;;;;4.26;30.72;102299.56;4383851;32;33560;-84
2022/03/20 02:02:54;;;;;;;8.38;4.80;;;;;;;4.36;30.58;102301.53;4371421;32;33188;-83
2022/03/20 02:05:22;;;;;;;11.57;4.55;;;;;;;4.41;30.53;102306.00;4384713;32;33719;-83
2022/03/20 02:07:50;;;;;;;8.27;5.12;;;;;;;4.04;31.24;102318.25;4372092;32;34071;-83
2022/03/20 02:10:18;;;;;;;5.85;3.85;;;;;;;4.29;30.90;102307.50;4384203;32;33227;-83
2022/03/20 02:12:46;;;;;;;8.65;4.28;;;;;;;4.20;31.02;102309.03;4371820;32;33947;-83
2022/03/20 02:15:14;;;;;;;12.00;5.47;;;;;;;4.43;31.06;102312.16;4347345;32;33558;-83
2022/03/20 02:17:43;;;;;;;9.52;4.50;;;;;;;4.07;31.58;102324.41;4370818;32;33880;-83
2022/03/20 02:20:11;;;;;;;10.63;4.80;;;;;;;4.32;31.14;102315.44;4371610;32;33658;-83
2022/03/20 02:22:41;;;;;;;10.90;5.10;;;;;;;4.39;31.08;102308.59;4383901;32;34220;-83
2022/03/20 02:25:10;;;;;;;11.73;5.43;;;;;;;4.53;30.80;102308.88;4370629;32;33316;-83
2022/03/20 02:27:44;;;;;;;13.10;5.18;;;;;;;4.37;31.35;102312.91;4384295;32;34040;-83
2022/03/20 02:30:15;;;;;;;7.30;4.40;;;;;;;4.48;31.17;102316.62;4382789;32;34103;-83
2022/03/20 02:32:48;;;;;;;8.35;4.35;;;;;;;4.38;31.49;102304.22;4383505;32;33409;-83
2022/03/20 02:35:17;;;;;;;8.35;4.32;;;;;;;4.27;31.39;102317.06;4384105;32;34147;-83
2022/03/20 02:37:48;;;;;;;10.57;5.53;;;;;;;4.08;31.81;102314.84;4359169;32;33833;-82
2022/03/20 02:40:18;;;;;;;8.52;4.75;;;;;;;3.59;32.71;102325.00;4371800;32;32783;-83
2022/03/20 02:42:51;;;;;;;8.50;4.78;;;;;;;4.12;32.02;102312.34;4371160;32;33620;-83
2022/03/20 02:45:21;;;;;;;9.60;5.05;;;;;;;3.88;32.44;102317.00;4382454;32;34901;-83
2022/03/20 02:47:51;;;;;;;11.38;4.90;;;;;;;3.79;32.65;102316.78;4371633;32;33928;-83
2022/03/20 02:50:27;;;;;;;9.63;4.85;;;;;;;3.77;32.75;102321.09;4385965;32;33399;-83
2022/03/20 02:52:58;;;;;;;6.90;4.40;;;;;;;3.69;32.79;102328.72;4372354;32;33651;-83
2022/03/20 02:55:30;;;;;;;11.50;4.85;;;;;;;3.61;33.21;102322.44;4349338;32;34103;-83
2022/03/20 02:58:01;;;;;;;9.63;4.97;;;;;;;3.94;32.82;102332.84;4373373;32;34093;-83
2022/03/20 03:00:30;;;;;;;12.70;5.62;;;;;;;3.39;33.60;102331.44;4385816;32;33232;-82
2022/03/20 03:03:01;;;;;;;9.13;4.72;;;;;;;3.29;34.00;102340.78;4385757;32;33570;-82
2022/03/20 03:05:30;;;;;;;13.20;5.65;;;;;;;3.56;33.46;102334.47;4385807;32;32785;-82
2022/03/20 03:10:59;;;;;;;9.32;5.12;;;;;;;3.31;33.99;102339.06;4382123;32;34007;-82
2022/03/20 03:13:36;;;;;;;12.37;4.78;;;;;;;3.32;34.10;102356.53;4382826;32;33610;-82
2022/03/20 03:16:11;;;;;;;10.40;4.82;;;;;;;3.24;34.76;102358.06;4372988;32;33347;-83
2022/03/20 03:18:44;;;;;;;11.50;5.20;;;;;;;3.53;34.02;102355.31;4361534;32;33071;-83
2022/03/20 03:21:17;;;;;;;9.80;5.37;;;;;;;3.69;33.54;102357.47;4347843;32;34208;-82
2022/03/20 03:23:45;;;;;;;12.65;5.07;;;;;;;3.68;33.57;102354.84;4384870;32;34557;-82
2022/03/20 03:26:13;;;;;;;9.88;4.95;;;;;;;3.79;33.45;102369.03;4373288;32;33187;-82
2022/03/20 03:28:40;;;;;;;11.50;5.82;;;;;;;3.78;33.48;102368.16;4385128;32;33798;-82
2022/03/20 03:31:10;;;;;;;10.93;4.90;;;;;;;3.65;33.88;102375.63;4373272;32;33238;-82
2022/03/20 03:36:26;;;;;;;8.50;5.55;;;;;;;3.73;33.79;102380.22;4396194;32;35238;-82
2022/03/20 03:38:54;;;;;;;14.20;6.00;;;;;;;3.34;34.60;102386.19;4360753;32;33325;-82
2022/03/20 03:41:21;;;;;;;9.68;5.55;;;;;;;3.47;34.31;102382.19;4373322;32;33331;-83
2022/03/20 03:43:49;;;;;;;10.60;5.35;;;;;;;3.04;35.27;102396.66;4372976;32;33349;-83
2022/03/20 03:46:17;;;;;;;14.55;5.50;;;;;;;3.00;35.79;102399.13;4384954;32;33914;-83
2022/03/20 03:48:45;;;;;;;9.80;5.78;;;;;;;3.23;35.20;102398.06;4360853;32;34071;-83
2022/03/20 03:51:12;;;;;;;10.73;5.55;;;;;;;3.31;35.44;102400.88;4373490;32;33381;-83
2022/03/20 03:53:40;;;;;;;11.25;5.85;;;;;;;3.18;35.47;102411.81;4385855;32;34602;-83
2022/03/20 03:56:08;;;;;;;11.55;5.93;;;;;;;3.40;35.19;102411.56;4360920;32;33579;-82
2022/03/20 03:58:36;;;;;;;12.05;6.40;;;;;;;3.44;35.02;102413.44;4373217;32;34614;-82
2022/03/20 04:01:03;;;;;;;14.95;7.25;;;;;;;3.36;35.49;102411.44;4359742;32;31848;-82
2022/03/20 04:03:31;;;;;;;11.65;6.22;;;;;;;3.22;35.27;102411.94;4362080;32;32743;-82
2022/03/20 04:06:04;;;;;;;10.60;5.90;;;;;;;3.31;35.48;102416.53;4372828;32;33807;-82
2022/03/20 04:08:34;;;;;;;9.80;5.78;;;;;;;3.27;35.67;102426.00;4360820;32;33275;-83
2022/03/20 04:11:02;;;;;;;12.13;6.37;;;;;;;3.39;35.62;102421.97;4372387;32;33148;-83
2022/03/20 04:13:30;;;;;;;12.85;6.32;;;;;;;3.49;35.39;102421.38;4360710;32;33314;-82
2022/03/20 04:15:58;;;;;;;12.88;6.07;;;;;;;3.53;35.16;102428.47;4360404;32;33240;-81
2022/03/20 04:18:25;;;;;;;10.98;6.35;;;;;;;3.82;34.65;102427.50;4373375;32;34413;-82
2022/03/20 04:20:53;;;;;;;12.98;6.90;;;;;;;2.78;36.39;102435.03;4360883;32;33123;-82
2022/03/20 04:26:07;;;;;;;12.80;6.43;;;;;;;3.38;35.58;102433.28;4383684;32;33375;-82
2022/03/20 04:28:35;;;;;;;14.40;6.78;;;;;;;3.17;36.29;102439.63;4357761;32;99268;-83
2022/03/20 04:31:03;;;;;;;12.63;7.07;;;;;;;3.08;36.31;102435.03;4385553;32;33552;-84
2022/03/20 04:33:31;;;;;;;12.93;6.57;;;;;;;3.29;36.02;102445.22;4385018;32;33846;-83
2022/03/20 04:35:59;;;;;;;12.90;5.70;;;;;;;2.96;36.96;102454.69;4372881;32;34000;-83
2022/03/20 04:38:27;;;;;;;15.07;7.07;;;;;;;3.24;36.68;102456.38;4348222;32;33491;-83
2022/03/20 04:40:55;;;;;;;12.18;6.70;;;;;;;3.08;37.03;102465.47;4373082;32;33546;-83
2022/03/20 04:43:23;;;;;;;17.48;7.05;;;;;;;2.77;37.96;102461.06;4371783;32;34401;-83
2022/03/20 04:45:51;;;;;;;11.12;6.53;;;;;;;2.44;38.48;102463.50;4372741;32;34410;-84
2022/03/20 04:59:27;;;;;;;12.45;6.53;;;;;;;3.04;37.84;102477.56;4369876;32;32402;-83
2022/03/20 05:01:58;;;;;;;12.02;6.90;;;;;;;3.06;37.67;102491.53;4371791;32;32863;-84
2022/03/20 05:04:26;;;;;;;22.70;7.87;;;;;;;2.95;37.93;102489.47;4385605;32;34478;-84
2022/03/20 05:06:54;;;;;;;39.58;11.20;;;;;;;2.94;38.12;102488.56;4383923;32;33647;-83
2022/03/20 05:14:59;;;;;;;25.70;9.25;;;;;;;3.16;37.73;102494.44;4381505;32;33941;-84
2022/03/20 05:17:28;;;;;;;15.15;7.37;;;;;;;3.30;37.46;102498.34;4372443;32;34769;-83
2022/03/20 05:19:56;;;;;;;16.37;7.30;;;;;;;3.19;37.62;102495.41;4360967;32;32691;-83
2022/03/20 05:22:24;;;;;;;21.05;7.35;;;;;;;3.27;37.81;102498.22;4372595;32;32685;-83
2022/03/20 05:24:52;;;;;;;12.25;7.35;;;;;;;3.35;37.76;102501.97;4359985;32;34455;-83
2022/03/20 05:27:20;;;;;;;17.77;7.15;;;;;;;2.86;38.10;102521.37;4384580;32;33808;-83
2022/03/20 05:29:47;;;;;;;14.25;8.15;;;;;;;2.76;38.32;102511.50;4372412;32;33706;-84
2022/03/20 05:32:15;;;;;;;14.68;7.60;;;;;;;2.91;38.53;102524.13;4384696;32;33566;-83
2022/03/20 05:34:44;;;;;;;20.25;8.70;;;;;;;2.75;39.13;102523.66;4384507;32;33917;-83
2022/03/20 05:37:11;;;;;;;29.80;10.60;;;;;;;3.07;37.99;102510.69;4372212;32;35371;-83
2022/03/20 05:39:39;;;;;;;14.55;7.78;;;;;;;3.07;38.08;102515.94;4384165;32;33976;-83
2022/03/20 05:42:08;;;;;;;15.63;8.13;;;;;;;3.27;37.82;102520.00;4359889;32;33643;-83
2022/03/20 05:44:35;;;;;;;13.88;6.93;;;;;;;3.24;37.83;102525.16;4371995;32;33124;-83
2022/03/20 05:47:04;;;;;;;12.68;7.43;;;;;;;3.37;37.70;102531.66;4359635;32;34465;-83
2022/03/20 05:49:32;;;;;;;15.07;8.15;;;;;;;3.62;37.32;102521.91;4359431;32;33292;-83
2022/03/20 05:52:00;;;;;;;15.40;7.75;;;;;;;3.36;37.85;102523.75;4384061;32;34021;-83
2022/03/20 05:54:28;;;;;;;15.52;8.25;;;;;;;3.69;37.83;102529.94;4359663;32;33253;-83
2022/03/20 05:59:43;;;;;;;12.37;6.35;;;;;;;3.73;37.32;102526.56;4382176;32;33320;-83
2022/03/20 06:02:11;;;;;;;15.75;7.60;;;;;;;4.00;36.61;102530.78;4383893;32;33641;-83
2022/03/20 06:04:39;;;;;;;15.77;7.30;;;;;;;3.64;38.13;102526.31;4371029;32;33508;-84
2022/03/20 06:07:08;;;;;;;14.23;7.12;;;;;;;3.40;38.07;102536.94;4371677;32;33880;-84
2022/03/20 06:09:37;;;;;;;12.70;6.85;;;;;;;3.83;37.60;102533.81;4384171;32;33442;-83
2022/03/20 06:12:07;;;;;;;12.18;7.35;;;;;;;3.77;37.36;102543.22;4383622;32;32872;-83
2022/03/20 06:14:35;;;;;;;14.48;6.97;;;;;;;3.84;37.62;102550.38;4371962;32;34202;-84
2022/03/20 06:17:05;;;;;;;11.15;6.87;;;;;;;3.78;37.46;102563.28;4371141;32;34069;-83
2022/03/20 06:19:35;;;;;;;14.65;7.03;;;;;;;3.43;38.15;102562.28;4370405;32;34000;-83
2022/03/20 06:22:03;;;;;;;10.85;6.32;;;;;;;3.50;37.84;102566.81;4383780;32;33444;-82
2022/03/20 06:24:32;;;;;;;13.50;5.90;;;;;;;4.05;37.24;102563.16;4385278;32;34215;-82
2022/03/20 06:27:00;;;;;;;11.43;6.82;;;;;;;3.96;36.95;102570.75;4386100;32;33851;-83
2022/03/20 06:29:28;;;;;;;12.07;6.43;;;;;;;4.31;36.81;102575.19;4373555;32;33996;-82
2022/03/20 06:31:56;;;;;;;10.27;5.78;;;;;;;4.20;36.42;102570.53;4360994;32;32425;-82
2022/03/20 06:34:24;;;;;;;12.05;6.30;;;;;;;4.24;36.16;102570.66;4386042;32;33383;-82
2022/03/20 06:36:55;;;;;;;9.90;5.68;;;;;;;3.73;36.94;102576.22;4386294;32;32937;-83
2022/03/20 06:39:24;;;;;;;11.48;5.50;;;;;;;4.26;35.81;102568.97;4385037;32;33353;-83
2022/03/20 06:41:51;;;;;;;9.95;5.47;;;;;;;4.28;35.61;102575.13;4373512;32;33782;-82
2022/03/20 06:44:19;;;;;;;10.02;5.45;;;;;;;4.48;35.77;102577.38;4386002;32;34306;-83
2022/03/20 06:46:47;;;;;;;10.18;5.28;;;;;;;4.48;35.46;102582.63;4362257;32;33715;-83
2022/03/20 06:49:15;;;;;;;8.77;5.32;;;;;;;4.64;35.42;102592.63;4371255;32;34734;-82
2022/03/20 06:51:42;;;;;;;12.20;5.68;;;;;;;4.82;35.65;102589.56;4372572;32;32921;-82
2022/03/20 06:54:10;;;;;;;13.73;6.85;;;;;;;4.34;35.80;102598.81;4383679;32;36025;-82
2022/03/20 06:56:37;;;;;;;10.32;6.37;;;;;;;4.31;35.77;102601.34;4385964;32;33176;-82
2022/03/20 06:59:05;;;;;;;12.80;6.25;;;;;;;4.60;35.77;102604.75;4382648;32;33671;-81
2022/03/20 07:01:33;;;;;;;10.02;6.10;;;;;;;4.70;36.04;102595.41;4364714;32;32483;-82
2022/03/20 07:04:01;;;;;;;11.48;5.72;;;;;;;4.86;35.10;102602.78;4371556;32;34195;-81
2022/03/20 07:06:29;;;;;;;13.82;6.25;;;;;;;5.24;34.32;102605.44;4372909;32;33730;-82
2022/03/20 07:09:00;;;;;;;10.18;5.97;;;;;;;5.62;33.60;102601.03;4367128;32;34012;-82
2022/03/20 07:11:32;;;;;;;9.65;5.03;;;;;;;5.38;33.88;102600.50;4370795;32;32512;-82
2022/03/20 07:14:01;;;;;;;11.32;5.35;;;;;;;5.76;33.31;102603.94;4382685;32;33297;-83
2022/03/20 07:16:30;;;;;;;9.95;5.43;;;;;;;5.63;33.13;102604.53;4397302;32;32905;-82
2022/03/20 07:18:58;;;;;;;12.20;5.57;;;;;;;6.13;32.37;102612.59;4384124;32;33005;-81
2022/03/20 07:21:28;;;;;;;12.90;4.93;;;;;;;5.65;33.58;102614.22;4384985;32;32292;-81
2022/03/20 07:23:57;;;;;;;9.95;5.95;;;;;;;5.78;33.22;102622.31;4372318;32;34091;-82
2022/03/20 07:29:30;;;;;;;12.37;5.65;;;;;;;5.63;33.22;102621.16;4370746;32;32866;-81
2022/03/20 07:31:59;;;;;;;11.45;5.85;;;;;;;5.81;32.74;102618.03;4370499;32;33356;-81
2022/03/20 07:34:27;;;;;;;13.70;6.03;;;;;;;6.07;33.92;102620.31;4383271;32;33146;-82
2022/03/20 07:36:55;;;;;;;9.27;5.62;;;;;;;6.05;32.37;102624.66;4360026;32;32874;-81
2022/03/20 07:39:22;;;;;;;10.68;6.25;;;;;;;6.26;32.99;102619.81;4359947;32;32764;-82
2022/03/20 07:41:50;;;;;;;13.80;5.97;;;;;;;6.61;31.69;102622.22;4385203;32;32598;-81
2022/03/20 07:44:25;;;;;;;11.32;5.80;;;;;;;6.36;32.42;102615.63;4371308;32;32683;-85
2022/03/20 07:46:54;;;;;;;15.77;6.07;;;;;;;6.52;32.85;102614.19;4383978;32;33258;-82
2022/03/20 07:49:22;;;;;;;14.50;6.50;;;;;;;6.42;31.86;102615.78;4371976;32;34291;-82
2022/03/20 07:51:50;;;;;;;10.93;6.18;;;;;;;7.26;30.88;102609.25;4371239;32;32936;-81
2022/03/20 07:54:18;;;;;;;12.88;5.55;;;;;;;6.97;31.32;102608.81;4367875;32;32942;-82
2022/03/20 07:57:03;;;;;;;13.23;5.65;;;;;;;7.27;31.13;102608.44;4359270;32;34111;-82
2022/03/20 07:59:36;;;;;;;10.75;5.97;;;;;;;7.60;30.55;102620.28;4371215;32;33736;-82
2022/03/20 08:02:17;;;;;;;10.52;5.97;;;;;;;7.46;30.80;102616.59;4369727;32;34284;-82
2022/03/20 08:05:05;;;;;;;14.43;6.15;;;;;;;7.22;30.24;102609.22;4358282;32;32165;-82
2022/03/20 08:07:43;;;;;;;11.30;6.35;;;;;;;7.60;30.48;102615.03;4381603;32;34026;-82
2022/03/20 08:11:00;;;;;;;11.27;5.82;;;;;;;7.53;30.68;102618.41;4353543;32;33417;-82
2022/03/20 08:13:40;;;;;;;13.62;6.62;;;;;;;7.34;30.05;102623.41;4381161;32;32308;-81
2022/03/20 08:16:16;;;;;;;13.20;5.35;;;;;;;7.29;30.77;102621.59;4346470;32;32407;-81
2022/03/20 08:18:55;;;;;;;13.25;6.78;;;;;;;8.09;30.03;102613.00;4370697;32;34085;-82
2022/03/20 08:21:42;;;;;;;14.50;6.45;;;;;;;8.22;29.25;102607.00;4369912;32;34025;-80
2022/03/20 08:24:47;;;;;;;9.27;5.30;;;;;;;7.92;29.61;102597.00;4368460;32;32305;-80
2022/03/20 08:27:37;;;;;;;9.45;5.07;;;;;;;7.64;29.67;102612.47;4355763;32;33999;-81
2022/03/20 08:30:24;;;;;;;8.00;5.45;;;;;;;8.58;28.90;102598.59;4370919;32;33948;-81
2022/03/20 08:32:54;;;;;;;9.38;5.32;;;;;;;8.67;28.91;102595.19;4369619;32;33957;-80
2022/03/20 08:35:22;;;;;;;9.73;5.72;;;;;;;8.46;29.13;102594.12;4368844;32;32862;-81
2022/03/20 08:37:53;;;;;;;10.68;5.53;;;;;;;8.23;28.37;102594.72;4360244;32;33815;-81
2022/03/20 08:40:25;;;;;;;12.18;5.32;;;;;;;7.83;28.79;102587.28;4359320;32;32689;-81
2022/03/20 08:42:57;;;;;;;9.00;5.00;;;;;;;7.99;28.69;102597.97;4359856;32;33064;-81
2022/03/20 08:45:31;;;;;;;7.45;4.82;;;;;;;8.41;28.64;102603.72;4358550;32;34904;-81
2022/03/20 08:48:01;;;;;;;9.18;4.70;;;;;;;8.12;28.17;102599.87;4380461;32;34761;-81
2022/03/20 08:50:28;;;;;;;5.68;4.53;;;;;;;8.69;28.44;102598.72;4370190;32;33231;-81
2022/03/20 08:52:56;;;;;;;8.00;5.28;;;;;;;8.21;27.69;102605.22;4371691;32;35930;-81
2022/03/20 08:55:24;;;;;;;7.70;4.75;;;;;;;8.68;27.82;102602.22;4359469;32;34115;-81
2022/03/20 08:57:53;;;;;;;7.97;4.87;;;;;;;8.87;27.21;102601.50;4384620;32;33717;-82
2022/03/20 09:00:22;;;;;;;9.65;4.72;;;;;;;8.95;27.25;102598.94;4359523;32;34051;-82
2022/03/20 09:02:51;;;;;;;9.55;4.95;;;;;;;9.10;27.81;102603.44;4368500;32;34628;-81
2022/03/20 09:05:19;;;;;;;7.50;4.68;;;;;;;9.34;27.05;102600.06;4372101;32;33488;-81
2022/03/20 09:07:49;;;;;;;9.98;5.57;;;;;;;8.48;27.40;102598.53;4385096;32;34933;-81
2022/03/20 09:10:17;;;;;;;10.57;5.22;;;;;;;8.49;28.50;102593.25;4371020;32;34609;-81
2022/03/20 09:12:45;;;;;;;9.23;5.07;;;;;;;8.59;27.46;102592.50;4381771;32;33765;-81
2022/03/20 09:15:15;;;;;;;5.53;4.25;;;;;;;8.38;28.74;102595.78;4384279;32;31769;-81
2022/03/20 09:20:35;;;;;;;9.88;4.75;;;;;;;8.81;27.74;102592.66;4381046;32;33863;-81
2022/03/20 09:23:04;;;;;;;7.07;4.82;;;;;;;9.50;26.79;102588.75;4384592;32;35264;-81
2022/03/20 09:25:33;;;;;;;6.68;3.80;;;;;;;8.91;28.10;102587.47;4384597;32;33695;-81
2022/03/20 09:28:05;;;;;;;8.50;4.90;;;;;;;9.70;26.57;102570.38;4383479;32;32831;-81
2022/03/20 09:30:34;;;;;;;12.18;4.10;;;;;;;9.52;25.33;102572.91;4384272;32;33507;-81
2022/03/20 09:33:02;;;;;;;7.70;4.70;;;;;;;9.83;25.95;102563.41;4371363;32;34164;-81
2022/03/20 09:35:32;;;;;;;8.18;4.87;;;;;;;9.49;25.61;102553.59;4384632;32;32227;-81
2022/03/20 09:38:01;;;;;;;8.13;4.55;;;;;;;9.88;25.53;102562.53;4371761;32;34303;-81
2022/03/20 09:40:37;;;;;;;7.35;4.75;;;;;;;9.80;25.12;102569.53;4384598;32;33431;-81
2022/03/20 09:43:06;;;;;;;8.82;5.18;;;;;;;9.71;25.42;102558.94;4359809;32;34053;-81
2022/03/20 09:45:35;;;;;;;6.78;4.37;;;;;;;9.27;26.88;102570.16;4383551;32;33176;-81
2022/03/20 09:48:04;;;;;;;11.55;5.12;;;;;;;10.01;25.72;102558.16;4359214;32;33161;-81
2022/03/20 09:50:32;;;;;;;6.78;4.18;;;;;;;9.92;24.87;102572.22;4358850;32;32998;-81
2022/03/20 09:53:00;;;;;;;9.98;4.22;;;;;;;9.61;25.58;102578.25;4384607;32;33039;-82
2022/03/20 09:55:28;;;;;;;6.80;4.20;;;;;;;10.34;25.23;102567.94;4372038;32;33639;-81
2022/03/20 09:57:57;;;;;;;6.87;3.95;;;;;;;10.64;23.76;102564.44;4360855;32;33653;-82
2022/03/20 10:00:25;;;;;;;7.50;4.65;;;;;;;10.42;24.98;102571.47;4360283;32;33155;-81
2022/03/20 10:02:52;;;;;;;10.25;4.25;;;;;;;10.51;24.84;102557.41;4348974;32;34168;-82
2022/03/20 10:05:22;;;;;;;10.30;4.45;;;;;;;10.63;24.20;102557.38;4373814;32;32657;-81
2022/03/20 10:07:52;;;;;;;6.97;4.70;;;;;;;10.03;25.77;102563.44;4373803;32;32632;-82
2022/03/20 10:10:23;;;;;;;9.93;5.10;;;;;;;10.69;24.55;102562.69;4373488;32;33603;-82
2022/03/20 10:12:53;;;;;;;10.25;5.00;;;;;;;10.73;24.32;102553.88;4348490;32;33605;-82
2022/03/20 10:15:38;;;;;;;7.50;4.78;;;;;;;10.95;24.28;102545.91;4372453;32;32166;-82
2022/03/20 10:18:06;;;;;;;6.22;3.80;;;;;;;10.79;23.94;102549.47;4385847;32;33858;-82
2022/03/20 10:20:41;;;;;;;9.00;4.57;;;;;;;10.71;25.09;102547.69;4362341;32;34553;-82
2022/03/20 10:23:31;;;;;;;6.53;4.25;;;;;;;10.86;23.46;102540.62;4361682;32;33856;-82
2022/03/20 10:26:03;;;;;;;8.02;4.70;;;;;;;11.47;23.46;102536.06;4362433;32;33348;-82
2022/03/20 10:28:36;;;;;;;7.45;4.93;;;;;;;11.01;23.87;102545.91;4373609;32;34323;-82
2022/03/20 10:31:06;;;;;;;8.43;5.18;;;;;;;10.74;24.10;102539.78;4373058;32;33020;-82
2022/03/20 10:33:38;;;;;;;5.90;3.95;;;;;;;11.13;25.78;102540.59;4385565;32;34519;-82
2022/03/20 10:36:10;;;;;;;6.95;4.20;;;;;;;11.24;24.01;102535.28;4373382;32;34231;-82
2022/03/20 10:38:38;;;;;;;8.80;4.57;;;;;;;11.23;23.95;102537.03;4361412;32;33150;-82
2022/03/20 10:41:16;;;;;;;5.97;4.30;;;;;;;11.43;22.88;102542.25;4367406;32;32872;-81
2022/03/20 10:43:45;;;;;;;7.05;4.62;;;;;;;11.34;23.04;102539.66;4362141;32;32910;-82
2022/03/20 10:46:23;;;;;;;7.50;4.62;;;;;;;11.25;23.23;102537.03;4386107;32;33561;-82
2022/03/20 10:48:53;;;;;;;7.00;4.10;;;;;;;11.24;24.13;102527.34;4385773;32;33965;-84
2022/03/20 10:51:38;;;;;;;9.82;5.22;;;;;;;11.33;23.21;102532.59;4385256;32;34027;-82
2022/03/20 10:54:21;;;;;;;8.80;5.03;;;;;;;11.13;25.77;102529.13;4373015;32;33799;-82
2022/03/20 10:56:57;;;;;;;;;;;;;;;11.70;24.82;102516.56;4373323;32;33741;-83
2022/03/20 10:59:26;;;;;;;8.07;4.90;;;;;;;12.50;21.87;102511.66;4397960;32;33384;-83
2022/03/20 11:01:54;;;;;;;6.35;4.65;;;;;;;12.59;22.16;102510.72;4373300;32;33983;-83
2022/03/20 11:04:23;;;;;;;10.82;4.93;;;;;;;12.05;22.46;102511.09;4373334;32;34139;-83
2022/03/20 11:06:54;;;;;;;9.23;5.03;;;;;;;12.27;21.90;102510.06;4373067;32;34337;-83
2022/03/20 11:09:22;;;;;;;9.73;4.85;;;;;;;12.42;21.14;102502.88;4384693;32;34557;-82
2022/03/20 11:11:54;;;;;;;8.57;5.47;;;;;;;11.66;21.41;102504.25;4373241;32;33634;-83
2022/03/20 11:14:26;;;;;;;8.73;4.55;;;;;;;11.41;23.71;102499.06;4385854;32;34619;-83
2022/03/20 11:17:02;;;;;;;7.22;4.35;;;;;;;12.08;22.57;102494.31;4373053;32;32252;-83
2022/03/20 11:19:31;;;;;;;7.30;4.45;;;;;;;12.57;23.06;102489.50;4373245;32;34307;-83
2022/03/20 11:22:11;;;;;;;8.98;4.95;;;;;;;13.04;21.29;102483.72;4384028;32;34096;-83
2022/03/20 11:24:41;;;;;;;8.10;5.40;;;;;;;12.99;20.98;102477.59;4372616;32;35988;-83
2022/03/20 11:27:11;;;;;;;6.07;4.80;;;;;;;12.40;21.14;102478.19;4367202;32;34603;-83
2022/03/20 11:29:43;;;;;;;6.68;4.65;;;;;;;12.32;20.94;102480.87;4373042;32;33236;-83
2022/03/20 11:32:11;;;;;;;7.00;4.68;;;;;;;11.01;22.40;102487.72;4373062;32;33523;-82
2022/03/20 11:34:39;;;;;;;7.07;4.95;;;;;;;11.05;22.56;102480.69;4385982;32;33037;-83
2022/03/20 11:37:10;;;;;;;8.38;4.28;;;;;;;10.79;22.82;102465.78;4373104;32;34463;-83
2022/03/20 11:39:39;;;;;;;9.38;5.62;;;;;;;11.21;22.58;102458.59;4360617;32;32761;-83
2022/03/20 11:42:20;;;;;;;8.35;4.40;;;;;;;11.31;21.67;102457.69;4373088;32;33703;-82
2022/03/20 11:45:10;;;;;;;6.87;4.15;;;;;;;11.08;24.61;102457.75;4359562;32;33390;-82
2022/03/20 11:47:40;;;;;;;6.32;4.40;;;;;;;11.22;22.79;102444.50;4385228;32;33368;-83
2022/03/20 11:50:08;;;;;;;10.68;4.93;;;;;;;11.27;21.67;102440.94;4361863;32;33231;-83
2022/03/20 11:52:45;;;;;;;6.87;3.85;;;;;;;11.31;21.82;102443.56;4373126;32;33937;-83
2022/03/20 11:55:24;;;;;;;10.10;4.62;;;;;;;11.05;21.86;102441.00;4370748;32;33932;-82
2022/03/20 11:57:52;;;;;;;6.28;4.25;;;;;;;10.99;22.05;102444.56;4385377;32;33733;-84
2022/03/20 12:00:25;;;;;;;8.95;4.57;;;;;;;10.92;21.66;102435.78;4384744;32;33946;-83
2022/03/20 12:03:15;;;;;;;6.37;4.28;;;;;;;11.11;22.59;102426.03;4370888;32;32797;-82
2022/03/20 12:06:04;;;;;;;7.32;3.90;;;;;;;11.59;21.40;102431.09;4385498;32;35169;-83
2022/03/20 12:08:50;;;;;;;6.90;4.40;;;;;;;11.72;20.94;102422.16;4360444;32;32786;-83
2022/03/20 12:11:50;;;;;;;7.00;4.45;;;;;;;11.28;22.15;102429.47;4385328;32;34674;-82
2022/03/20 12:14:36;;;;;;;9.05;4.65;;;;;;;11.54;21.70;102416.09;4382751;32;34365;-83
2022/03/20 12:17:04;;;;;;;6.37;4.00;;;;;;;11.92;20.91;102422.06;4384302;32;33893;-83